KAGC/AGC METAR and TAF weather

Enter ICAO airport designator
Station Type Date Time Source
KAGC METAR 2019/10/16 18:53 UTC NOAA

KAGC 161853Z 25012G17KT 10SM SCT015 BKN020 OVC040 09/07 A2966 RMK AO2 SLP047 T00940072


Station Type Date Time Source
KAGC Decoded METAR 2019/10/16 18:53 UTC NOAA

PITTSBURGH ALLEGHENY CTY., PA, United States (KAGC) 40-21N 079-55W 389M
Oct 16, 2019 - 02:53 PM EDT / 2019.10.16 1853 UTC
Wind: from the WSW (250 degrees) at 14 MPH (12 KT) gusting to 20 MPH (17 KT):0
Visibility: 10 mile(s):0
Sky conditions: overcast
Temperature: 48.9 F (9.4 C)
Dew Point: 45.0 F (7.2 C)
Relative Humidity: 86%
Pressure (altimeter): 29.66 in. Hg (1004 hPa)
ob: KAGC 161853Z 25012G17KT 10SM SCT015 BKN020 OVC040 09/07 A2966 RMK AO2 SLP047 T00940072
cycle: 19

Station Type Date Time Source
KAGC TAF 2019/10/16 18:27 UTC NOAA

TAF KAGC 161724Z 1618/1718 26011G19KT P6SM VCSH OVC025
TEMPO 1618/1621 SCT025 BKN040
FM170000 27015G25KT P6SM VCSH OVC015
FM171700 28013G22KT P6SM OVC020

Example: see airport list